createdAt,value
2023-05-19T00:00:01.009Z,35.88
2023-05-19T00:00:59.899Z,35.88
2023-05-19T00:02:01.032Z,32.62
2023-05-19T00:03:01.194Z,33.64
2023-05-19T00:04:00.912Z,35.33
2023-05-19T00:05:01.076Z,32.74
2023-05-19T00:05:59.868Z,33.38
2023-05-19T00:06:59.935Z,34.28
2023-05-19T00:08:00.207Z,35.07
2023-05-19T00:09:00.988Z,30.64
2023-05-19T00:10:00.837Z,32.72
2023-05-19T00:10:59.804Z,34.37
2023-05-19T00:12:00.953Z,33.13
2023-05-19T00:12:59.952Z,33.75
2023-05-19T00:13:59.980Z,36.27
2023-05-19T00:15:00.946Z,38.52
2023-05-19T00:16:00.038Z,34.24
2023-05-19T00:16:59.985Z,33.39
2023-05-19T00:17:59.892Z,34.99
2023-05-19T00:19:00.797Z,34.40
2023-05-19T00:19:59.875Z,32.15
2023-05-19T00:20:59.983Z,34.19
2023-05-19T00:21:59.865Z,37.87
2023-05-19T00:23:00.838Z,34.57
2023-05-19T00:24:00.881Z,31.98
2023-05-19T00:24:59.877Z,35.25
2023-05-19T00:25:59.793Z,33.18
2023-05-19T00:27:00.772Z,34.63
2023-05-19T00:27:59.764Z,35.97
2023-05-19T00:29:00.834Z,34.76
2023-05-19T00:29:59.902Z,34.71
2023-05-19T00:30:59.931Z,36.28
2023-05-19T00:32:00.818Z,36.67
2023-05-19T00:33:01.100Z,40.05
2023-05-19T00:33:59.972Z,37.19
2023-05-19T00:34:59.897Z,37.27
2023-05-19T00:35:59.800Z,36.93
2023-05-19T00:37:00.827Z,35.22
2023-05-19T00:38:00.763Z,32.81
2023-05-19T00:38:59.931Z,33.51
2023-05-19T00:40:00.767Z,36.07
2023-05-19T00:41:00.737Z,33.49
2023-05-19T00:41:59.796Z,32.77
2023-05-19T00:42:59.857Z,31.16
2023-05-19T00:44:00.727Z,33.64
2023-05-19T00:45:00.800Z,31.54
2023-05-19T00:45:59.857Z,28.29
2023-05-19T00:46:59.998Z,31.21
2023-05-19T00:47:59.840Z,32.63
2023-05-19T00:48:59.976Z,31.89
2023-05-19T00:49:59.747Z,32.77
2023-05-19T00:51:00.782Z,32.57
2023-05-19T00:51:59.706Z,36.38
2023-05-19T00:53:00.806Z,33.08
2023-05-19T00:54:00.751Z,31.51
2023-05-19T00:54:59.758Z,33.80
2023-05-19T00:55:59.932Z,33.18
2023-05-19T00:56:59.957Z,32.75
2023-05-19T00:58:00.744Z,32.99
2023-05-19T00:58:59.712Z,34.68
2023-05-19T01:00:00.764Z,34.48
2023-05-19T01:01:00.922Z,35.70
2023-05-19T01:01:59.740Z,37.40
2023-05-19T01:03:00.801Z,35.57
2023-05-19T01:04:00.216Z,33.63
2023-05-19T01:04:59.775Z,34.36
2023-05-19T01:05:59.694Z,30.34
2023-05-19T01:07:00.928Z,33.75
2023-05-19T01:07:59.818Z,31.92
2023-05-19T01:09:00.701Z,35.84
2023-05-19T01:09:59.753Z,32.69
2023-05-19T01:10:59.722Z,33.82
2023-05-19T01:11:59.715Z,34.84
2023-05-19T01:12:59.959Z,35.79
2023-05-19T01:13:59.716Z,35.78
2023-05-19T01:14:59.949Z,38.63
2023-05-19T01:16:00.901Z,37.43
2023-05-19T01:17:00.969Z,34.66
2023-05-19T01:17:59.806Z,37.63
2023-05-19T01:19:00.718Z,33.32
2023-05-19T01:19:59.706Z,34.37
2023-05-19T01:20:59.699Z,34.58
2023-05-19T01:21:59.701Z,36.45
2023-05-19T01:22:59.715Z,37.56
2023-05-19T01:24:00.943Z,33.90
2023-05-19T01:24:59.859Z,32.14
2023-05-19T01:26:00.749Z,34.37
2023-05-19T01:27:00.710Z,33.63
2023-05-19T01:28:00.851Z,35.30
2023-05-19T01:28:59.957Z,33.22
2023-05-19T01:29:59.774Z,34.51
2023-05-19T01:30:59.726Z,33.55
2023-05-19T01:32:00.780Z,35.57
2023-05-19T01:32:59.921Z,31.55
2023-05-19T01:34:00.914Z,34.61
2023-05-19T01:34:59.706Z,34.54
2023-05-19T01:35:59.867Z,36.31
2023-05-19T01:36:59.710Z,37.82
2023-05-19T01:38:01.042Z,36.16
2023-05-19T01:39:00.884Z,38.42
2023-05-19T01:40:00.846Z,38.57
2023-05-19T01:40:59.734Z,35.68
2023-05-19T01:41:59.820Z,39.53
2023-05-19T01:42:59.710Z,36.60
2023-05-19T01:44:00.859Z,37.22
2023-05-19T01:45:00.698Z,32.78
2023-05-19T01:46:00.930Z,36.05
2023-05-19T01:46:59.712Z,34.84
2023-05-19T01:48:00.733Z,36.12
2023-05-19T01:48:59.854Z,32.25
2023-05-19T01:50:00.920Z,36.13
2023-05-19T01:50:59.699Z,34.29
2023-05-19T01:51:59.751Z,35.19
2023-05-19T01:52:59.700Z,34.50
2023-05-19T01:54:00.732Z,36.48
2023-05-19T01:54:59.722Z,35.33
2023-05-19T01:55:59.791Z,36.84
2023-05-19T01:56:59.724Z,33.50
2023-05-19T01:58:01.038Z,35.08
2023-05-19T01:58:59.715Z,40.32
2023-05-19T02:00:00.984Z,35.81
2023-05-19T02:00:59.956Z,36.70
2023-05-19T02:02:00.862Z,35.23
2023-05-19T02:03:01.019Z,33.94
2023-05-19T02:04:00.001Z,34.08
2023-05-19T02:05:00.956Z,34.17
2023-05-19T02:05:59.898Z,37.98
2023-05-19T02:06:59.924Z,37.71
2023-05-19T02:08:00.837Z,38.74
2023-05-19T02:09:00.832Z,35.02
2023-05-19T02:09:59.915Z,38.36
2023-05-19T02:10:59.795Z,37.70
2023-05-19T02:11:59.760Z,37.13
2023-05-19T02:12:59.796Z,34.96
2023-05-19T02:14:00.796Z,34.68
2023-05-19T02:14:59.884Z,37.63
2023-05-19T02:16:00.761Z,33.53
2023-05-19T02:17:00.008Z,33.43
2023-05-19T02:18:00.000Z,31.37
2023-05-19T02:19:00.904Z,33.39
2023-05-19T02:19:59.761Z,32.53
2023-05-19T02:20:59.769Z,34.00
2023-05-19T02:22:00.007Z,34.71
2023-05-19T02:22:59.855Z,35.54
2023-05-19T02:24:00.976Z,35.29
2023-05-19T02:25:00.790Z,33.87
2023-05-19T02:25:59.878Z,32.61
2023-05-19T02:27:01.000Z,35.77
2023-05-19T02:27:59.898Z,36.17
2023-05-19T02:29:00.588Z,35.94
2023-05-19T02:30:00.122Z,36.50
2023-05-19T02:30:59.868Z,33.52
2023-05-19T02:32:00.239Z,30.58
2023-05-19T02:32:59.937Z,31.52
2023-05-19T02:34:00.828Z,37.27
2023-05-19T02:35:00.851Z,34.17
2023-05-19T02:36:01.077Z,33.81
2023-05-19T02:36:59.939Z,34.29
2023-05-19T02:37:59.918Z,33.50
2023-05-19T02:38:59.936Z,36.39
2023-05-19T02:40:01.038Z,35.10
2023-05-19T02:41:00.860Z,36.51
2023-05-19T02:42:00.894Z,33.79
2023-05-19T02:42:59.894Z,33.77
2023-05-19T02:43:59.891Z,34.49
2023-05-19T02:44:59.880Z,36.86
2023-05-19T02:46:00.008Z,36.72
2023-05-19T02:47:00.140Z,36.55
2023-05-19T02:48:00.055Z,31.21
2023-05-19T02:49:00.029Z,35.50
2023-05-19T02:50:00.886Z,35.51
2023-05-19T02:50:59.932Z,39.58
2023-05-19T02:52:01.114Z,33.06
2023-05-19T02:53:00.026Z,34.60
2023-05-19T02:54:00.934Z,34.99
2023-05-19T02:55:00.976Z,34.50
2023-05-19T02:56:00.894Z,36.78
2023-05-19T02:57:00.910Z,33.97
2023-05-19T02:58:00.907Z,36.68
2023-05-19T02:59:00.910Z,35.45
2023-05-19T03:00:01.081Z,32.39
2023-05-19T03:00:59.922Z,36.56
2023-05-19T03:02:00.331Z,36.97
2023-05-19T03:03:00.064Z,34.53
2023-05-19T03:04:00.113Z,37.06
2023-05-19T03:05:01.262Z,40.21
2023-05-19T03:06:01.157Z,37.22
2023-05-19T03:07:01.111Z,34.97
2023-05-19T03:08:01.212Z,37.51
2023-05-19T03:08:59.989Z,34.21
2023-05-19T03:10:01.085Z,34.99
2023-05-19T03:11:01.260Z,37.39
2023-05-19T03:12:00.004Z,35.19
2023-05-19T03:13:01.181Z,37.36
2023-05-19T03:14:01.018Z,37.78
2023-05-19T03:15:00.037Z,35.08
2023-05-19T03:16:00.148Z,38.06
2023-05-19T03:17:00.183Z,36.11
2023-05-19T03:18:01.231Z,35.64
2023-05-19T03:19:01.192Z,36.18
2023-05-19T03:20:00.232Z,36.32
2023-05-19T03:21:00.131Z,35.59
2023-05-19T03:22:00.258Z,34.53
2023-05-19T03:23:00.113Z,34.09
2023-05-19T03:24:00.319Z,32.99
2023-05-19T03:25:01.345Z,35.20
2023-05-19T03:26:01.191Z,33.13
2023-05-19T03:27:01.125Z,31.86
2023-05-19T03:28:00.468Z,32.58
2023-05-19T03:29:00.167Z,32.62
2023-05-19T03:30:01.294Z,33.04
2023-05-19T03:31:01.347Z,34.46
2023-05-19T03:32:01.343Z,36.05
2023-05-19T03:33:01.466Z,37.55
2023-05-19T03:34:00.266Z,35.06
2023-05-19T03:35:01.163Z,36.90
2023-05-19T03:36:01.371Z,39.54
2023-05-19T03:37:00.402Z,35.53
2023-05-19T03:38:01.277Z,37.19
2023-05-19T03:39:00.333Z,35.04
2023-05-19T03:40:00.305Z,37.38
2023-05-19T03:41:01.470Z,36.44
2023-05-19T03:42:00.256Z,37.69
2023-05-19T03:43:01.291Z,35.39
2023-05-19T03:44:01.303Z,37.45
2023-05-19T03:45:00.247Z,36.07
2023-05-19T03:46:01.340Z,35.57
2023-05-19T03:47:01.439Z,37.87
2023-05-19T03:48:01.342Z,36.69
2023-05-19T03:49:01.412Z,35.96
2023-05-19T03:50:00.240Z,35.74
2023-05-19T03:51:01.371Z,38.03
2023-05-19T03:52:01.364Z,35.35
2023-05-19T03:53:00.395Z,36.45
2023-05-19T03:54:01.383Z,37.94
2023-05-19T03:55:00.280Z,38.13
2023-05-19T03:56:01.346Z,34.69
2023-05-19T03:57:00.308Z,34.57
2023-05-19T03:58:00.364Z,34.26
2023-05-19T03:59:00.345Z,34.68
2023-05-19T04:00:00.389Z,32.95
2023-05-19T04:01:01.363Z,33.53
2023-05-19T04:02:01.414Z,31.81
2023-05-19T04:03:01.508Z,34.44
2023-05-19T04:04:01.450Z,32.28
2023-05-19T04:05:00.419Z,31.93
2023-05-19T04:06:01.437Z,32.46
2023-05-19T04:07:01.598Z,33.37
2023-05-19T04:08:00.441Z,31.80
2023-05-19T04:09:00.463Z,34.49
2023-05-19T04:10:01.491Z,33.70
2023-05-19T04:11:00.502Z,34.24
2023-05-19T04:12:01.483Z,31.56
2023-05-19T04:13:01.640Z,33.85
2023-05-19T04:14:01.529Z,34.69
2023-05-19T04:15:01.525Z,36.72
2023-05-19T04:16:01.558Z,34.37
2023-05-19T04:17:00.526Z,34.55
2023-05-19T04:18:00.584Z,35.34
2023-05-19T04:19:01.609Z,35.02
2023-05-19T04:20:01.553Z,32.60
2023-05-19T04:21:00.554Z,33.89
2023-05-19T04:22:01.563Z,33.44
2023-05-19T04:23:00.564Z,35.38
2023-05-19T04:24:00.577Z,37.63
2023-05-19T04:25:01.578Z,34.40
2023-05-19T04:26:01.595Z,34.13
2023-05-19T04:27:01.584Z,32.87
2023-05-19T04:28:01.594Z,32.16
2023-05-19T04:29:01.610Z,35.02
2023-05-19T04:30:01.655Z,35.04
2023-05-19T04:31:01.678Z,37.04
2023-05-19T04:32:00.666Z,34.34
2023-05-19T04:33:00.714Z,33.69
2023-05-19T04:34:00.659Z,33.50
2023-05-19T04:35:01.673Z,31.59
2023-05-19T04:36:00.683Z,29.86
2023-05-19T04:37:01.679Z,29.26
2023-05-19T04:38:01.715Z,31.98
2023-05-19T04:39:01.711Z,32.56
2023-05-19T04:40:01.696Z,32.29
2023-05-19T04:41:00.727Z,32.21
2023-05-19T04:42:01.718Z,33.27
2023-05-19T04:43:01.724Z,34.45
2023-05-19T04:44:01.755Z,28.21
2023-05-19T04:45:01.753Z,33.22
2023-05-19T04:46:01.792Z,30.88
2023-05-19T04:47:00.802Z,34.34
2023-05-19T04:48:01.831Z,34.85
2023-05-19T04:49:01.770Z,32.32
2023-05-19T04:50:00.858Z,33.39
2023-05-19T04:51:00.793Z,34.70
2023-05-19T04:52:00.777Z,34.15
2023-05-19T04:53:01.805Z,37.36
2023-05-19T04:54:00.793Z,32.98
2023-05-19T04:55:00.805Z,33.94
2023-05-19T04:56:01.806Z,37.47
2023-05-19T04:57:01.815Z,39.38
2023-05-19T04:58:01.827Z,35.16
2023-05-19T04:59:00.850Z,32.36
2023-05-19T05:00:00.846Z,30.93
2023-05-19T05:01:01.857Z,34.12
2023-05-19T05:02:01.937Z,30.73
2023-05-19T05:03:01.910Z,29.49
2023-05-19T05:04:01.896Z,28.87
2023-05-19T05:05:01.882Z,33.67
2023-05-19T05:06:01.911Z,36.28
2023-05-19T05:07:01.903Z,34.05
2023-05-19T05:08:00.905Z,34.95
2023-05-19T05:09:01.912Z,31.41
2023-05-19T05:10:01.085Z,34.19
2023-05-19T05:11:01.933Z,33.76
2023-05-19T05:12:00.951Z,35.83
2023-05-19T05:13:02.009Z,38.44
2023-05-19T05:14:00.998Z,35.63
2023-05-19T05:15:02.063Z,35.89
2023-05-19T05:16:02.057Z,37.11
2023-05-19T05:17:01.007Z,32.59
2023-05-19T05:18:02.139Z,32.21
2023-05-19T05:19:01.104Z,32.24
2023-05-19T05:20:02.041Z,34.23
2023-05-19T05:21:01.055Z,32.52
2023-05-19T05:22:02.151Z,33.97
2023-05-19T05:23:01.082Z,31.50
2023-05-19T05:24:02.088Z,35.14
2023-05-19T05:25:01.091Z,36.85
2023-05-19T05:26:02.183Z,33.89
2023-05-19T05:27:01.113Z,30.98
2023-05-19T05:28:01.108Z,27.75
2023-05-19T05:29:01.115Z,29.00
2023-05-19T05:30:01.121Z,27.96
2023-05-19T05:31:02.131Z,34.42
2023-05-19T05:32:02.170Z,32.37
2023-05-19T05:33:01.205Z,32.82
2023-05-19T05:34:02.341Z,33.14
2023-05-19T05:35:02.140Z,31.77
2023-05-19T05:36:02.156Z,29.99
2023-05-19T05:37:01.165Z,32.75
2023-05-19T05:38:02.152Z,30.15
2023-05-19T05:39:01.168Z,31.89
2023-05-19T05:40:02.324Z,32.24
2023-05-19T05:41:01.155Z,31.80
2023-05-19T05:42:02.166Z,31.81
2023-05-19T05:43:01.178Z,29.98
2023-05-19T05:44:01.185Z,30.04
2023-05-19T05:45:01.263Z,28.91
2023-05-19T05:46:02.219Z,26.92
2023-05-19T05:47:01.191Z,30.76
2023-05-19T05:48:02.402Z,29.25
2023-05-19T05:49:01.218Z,30.13
2023-05-19T05:50:01.256Z,32.75
2023-05-19T05:51:02.208Z,31.15
2023-05-19T05:52:06.211Z,33.48
2023-05-19T05:53:01.367Z,33.68
2023-05-19T05:54:01.537Z,33.58
2023-05-19T05:55:01.401Z,31.24
2023-05-19T05:56:02.433Z,31.89
2023-05-19T05:57:01.504Z,32.59
2023-05-19T05:58:02.432Z,32.73
2023-05-19T05:59:02.413Z,32.03
2023-05-19T06:00:02.469Z,30.51
2023-05-19T06:01:01.428Z,28.48
2023-05-19T06:02:02.498Z,31.25
2023-05-19T06:03:01.492Z,30.10
2023-05-19T06:04:01.445Z,27.30
2023-05-19T06:05:01.467Z,30.90
2023-05-19T06:06:02.507Z,27.81
2023-05-19T06:07:01.458Z,28.03
2023-05-19T06:08:02.524Z,29.48
2023-05-19T06:09:01.482Z,30.34
2023-05-19T06:10:02.462Z,28.43
2023-05-19T06:11:02.446Z,29.28
2023-05-19T06:12:02.488Z,29.65
2023-05-19T06:13:02.490Z,28.34
2023-05-19T06:14:02.465Z,27.49
2023-05-19T06:15:02.599Z,26.91
2023-05-19T06:16:02.475Z,28.29
2023-05-19T06:17:01.442Z,28.95
2023-05-19T06:18:01.544Z,30.03
2023-05-19T06:19:01.518Z,27.93
2023-05-19T06:20:01.433Z,28.44
2023-05-19T06:21:02.433Z,31.97
2023-05-19T06:22:02.444Z,31.78
2023-05-19T06:23:02.420Z,29.89
2023-05-19T06:24:02.428Z,31.51
2023-05-19T06:25:01.412Z,28.37
2023-05-19T06:26:02.415Z,31.28
2023-05-19T06:27:02.441Z,31.50
2023-05-19T06:28:01.440Z,29.70
2023-05-19T06:29:02.403Z,28.93
2023-05-19T06:30:01.381Z,26.79
2023-05-19T06:31:02.391Z,29.38
2023-05-19T06:32:02.372Z,26.23
2023-05-19T06:33:02.499Z,28.53
2023-05-19T06:34:01.357Z,28.50
2023-05-19T06:35:02.355Z,28.65
2023-05-19T06:36:01.353Z,27.26
2023-05-19T06:37:02.568Z,27.07
2023-05-19T06:38:01.673Z,26.74
2023-05-19T06:39:02.820Z,26.77
2023-05-19T06:40:02.523Z,29.11
2023-05-19T06:41:01.357Z,28.32
2023-05-19T06:42:02.412Z,27.16
2023-05-19T06:43:02.367Z,27.23
2023-05-19T06:44:01.417Z,27.10
2023-05-19T06:45:01.527Z,25.83
2023-05-19T06:46:01.453Z,26.74
2023-05-19T06:47:01.445Z,30.52
2023-05-19T06:48:01.498Z,26.17
2023-05-19T06:49:02.376Z,25.75
2023-05-19T06:50:02.372Z,27.57
2023-05-19T06:51:01.383Z,28.91
2023-05-19T06:52:01.394Z,27.25
2023-05-19T06:53:01.402Z,28.11
2023-05-19T06:54:01.432Z,28.83
2023-05-19T06:55:02.504Z,29.11
2023-05-19T06:56:01.422Z,30.33
2023-05-19T06:57:02.498Z,30.62
2023-05-19T06:58:01.434Z,28.09
2023-05-19T06:59:02.604Z,30.86
2023-05-19T07:00:01.447Z,30.99
2023-05-19T07:01:02.654Z,26.79
2023-05-19T07:02:01.523Z,29.11
2023-05-19T07:03:01.545Z,30.85
2023-05-19T07:04:02.509Z,28.73
2023-05-19T07:05:01.488Z,27.98
2023-05-19T07:06:01.486Z,30.26
2023-05-19T07:07:02.517Z,29.40
2023-05-19T07:08:01.507Z,27.06
2023-05-19T07:09:01.570Z,29.26
2023-05-19T07:10:01.563Z,30.61
2023-05-19T07:11:02.525Z,29.29
2023-05-19T07:12:02.585Z,25.60
2023-05-19T07:13:02.536Z,27.48
2023-05-19T07:14:02.589Z,31.39
2023-05-19T07:15:01.551Z,27.05
2023-05-19T07:16:02.621Z,28.08
2023-05-19T07:17:02.547Z,27.22
2023-05-19T07:18:02.659Z,27.22
2023-05-19T07:19:02.692Z,25.00
2023-05-19T07:20:02.677Z,25.30
2023-05-19T07:21:01.606Z,28.64
2023-05-19T07:22:02.561Z,26.08
2023-05-19T07:23:01.714Z,27.33
2023-05-19T07:24:02.595Z,26.83
2023-05-19T07:25:01.574Z,27.21
2023-05-19T07:26:02.694Z,25.96
2023-05-19T07:27:01.707Z,25.82
2023-05-19T07:28:01.607Z,27.05
2023-05-19T07:29:01.546Z,29.83
2023-05-19T07:30:01.586Z,28.48
2023-05-19T07:31:02.551Z,26.99
2023-05-19T07:32:01.574Z,26.20
2023-05-19T07:33:02.632Z,28.16
2023-05-19T07:34:02.532Z,25.25
2023-05-19T07:35:01.595Z,25.86
2023-05-19T07:36:01.591Z,28.39
2023-05-19T07:37:02.558Z,28.22
2023-05-19T07:38:01.534Z,28.59
2023-05-19T07:39:01.592Z,26.24
2023-05-19T07:40:02.703Z,27.64
2023-05-19T07:41:02.703Z,26.42
2023-05-19T07:42:01.655Z,28.46
2023-05-19T07:43:01.637Z,29.58
2023-05-19T07:44:01.498Z,25.98
2023-05-19T07:45:02.522Z,28.44
2023-05-19T07:46:01.527Z,25.00
2023-05-19T07:47:02.517Z,25.64
2023-05-19T07:48:01.546Z,28.33
2023-05-19T07:49:02.543Z,27.10
2023-05-19T07:50:01.501Z,28.31
2023-05-19T07:51:02.484Z,29.53
2023-05-19T07:52:02.576Z,30.03
2023-05-19T07:53:02.469Z,30.30
2023-05-19T07:54:01.483Z,34.15
2023-05-19T07:55:02.524Z,31.66
2023-05-19T07:56:01.473Z,32.84
2023-05-19T07:57:02.479Z,30.47
2023-05-19T07:58:02.509Z,30.74
2023-05-19T07:59:02.489Z,32.92
2023-05-19T08:00:01.481Z,32.50
2023-05-19T08:01:01.495Z,32.07
2023-05-19T08:02:01.655Z,31.06
2023-05-19T08:03:01.640Z,29.38
2023-05-19T08:04:01.607Z,31.64
2023-05-19T08:05:02.581Z,28.84
2023-05-19T08:06:01.643Z,31.61
2023-05-19T08:07:02.681Z,30.69
2023-05-19T08:08:02.773Z,30.34
2023-05-19T08:09:01.872Z,32.25
2023-05-19T08:10:01.863Z,29.24
2023-05-19T08:11:02.927Z,27.70
2023-05-19T08:12:03.007Z,29.97
2023-05-19T08:13:02.050Z,27.24
2023-05-19T08:14:03.174Z,27.64
2023-05-19T08:15:02.253Z,30.22
2023-05-19T08:16:02.330Z,27.06
2023-05-19T08:17:02.314Z,28.63
2023-05-19T08:18:03.395Z,30.15
2023-05-19T08:19:02.726Z,30.79
2023-05-19T08:20:02.477Z,31.21
2023-05-19T08:21:02.573Z,27.88
2023-05-19T08:22:03.670Z,27.81
2023-05-19T08:23:02.663Z,28.28
2023-05-19T08:24:03.958Z,27.80
2023-05-19T08:25:03.795Z,27.13
2023-05-19T08:26:02.907Z,29.65
2023-05-19T08:27:03.917Z,29.88
2023-05-19T08:28:04.088Z,29.17
2023-05-19T08:29:04.227Z,27.15
2023-05-19T08:30:04.099Z,28.78
2023-05-19T08:31:04.219Z,28.43
2023-05-19T08:32:04.166Z,26.83
2023-05-19T08:33:03.264Z,28.93
2023-05-19T08:34:03.329Z,27.36
2023-05-19T08:35:04.358Z,29.19
2023-05-19T08:36:03.344Z,29.33
2023-05-19T08:37:04.385Z,27.41
2023-05-19T08:38:04.441Z,28.83
2023-05-19T08:39:04.478Z,28.02
2023-05-19T08:40:04.531Z,25.00
2023-05-19T08:41:04.716Z,26.22
2023-05-19T08:42:04.636Z,25.00
2023-05-19T08:43:03.659Z,27.16
2023-05-19T08:44:04.692Z,27.84
2023-05-19T08:45:04.798Z,27.78
2023-05-19T08:46:04.826Z,27.02
2023-05-19T08:47:05.055Z,26.26
2023-05-19T08:48:05.029Z,26.64
2023-05-19T08:49:04.911Z,25.52
2023-05-19T08:50:04.055Z,25.00
2023-05-19T08:51:03.985Z,27.49
2023-05-19T08:52:04.145Z,30.79
2023-05-19T08:53:05.046Z,28.86
2023-05-19T08:54:04.056Z,27.01
2023-05-19T08:55:04.101Z,27.23
2023-05-19T08:56:05.094Z,25.21
2023-05-19T08:57:05.084Z,26.34
2023-05-19T08:58:05.119Z,28.04
2023-05-19T08:59:04.149Z,30.21
2023-05-19T09:00:05.201Z,25.51
2023-05-19T09:01:05.296Z,28.47
2023-05-19T09:02:05.357Z,26.02
2023-05-19T09:04:04.467Z,27.44
2023-05-19T09:05:05.716Z,29.53
2023-05-19T09:06:04.603Z,27.89
2023-05-19T09:07:04.636Z,25.47
2023-05-19T09:08:04.767Z,26.47
2023-05-19T09:09:04.808Z,27.69
2023-05-19T09:10:05.799Z,27.01
2023-05-19T09:11:05.854Z,30.07
2023-05-19T09:12:04.924Z,29.17
2023-05-19T09:13:06.023Z,30.52
2023-05-19T09:14:05.165Z,29.68
2023-05-19T09:15:06.196Z,28.19
2023-05-19T09:16:05.217Z,27.58
2023-05-19T09:17:05.290Z,29.35
2023-05-19T09:18:05.346Z,26.90
2023-05-19T09:19:05.356Z,29.66
2023-05-19T09:20:06.373Z,28.33
2023-05-19T09:21:05.410Z,25.69
2023-05-19T09:22:05.612Z,26.72
2023-05-19T09:23:05.528Z,30.62
2023-05-19T09:24:05.582Z,27.32
2023-05-19T09:25:05.771Z,28.65
2023-05-19T09:26:05.636Z,28.86
2023-05-19T09:27:05.703Z,27.66
2023-05-19T09:28:05.734Z,28.44
2023-05-19T09:29:05.755Z,25.30
2023-05-19T09:30:05.780Z,31.30
2023-05-19T09:31:05.816Z,29.96
2023-05-19T09:32:06.885Z,29.24
2023-05-19T09:33:06.926Z,27.64
2023-05-19T09:34:05.974Z,30.80
2023-05-19T09:35:06.971Z,28.91
2023-05-19T09:36:06.289Z,29.15
2023-05-19T09:37:07.072Z,29.58
2023-05-19T09:38:07.077Z,27.78
2023-05-19T09:39:07.312Z,32.20
2023-05-19T09:40:07.173Z,29.24
2023-05-19T09:41:06.205Z,31.30
2023-05-19T09:42:06.233Z,26.73
2023-05-19T09:43:06.265Z,28.79
2023-05-19T09:44:06.320Z,29.17
2023-05-19T09:45:07.360Z,26.73
2023-05-19T09:46:07.789Z,27.99
2023-05-19T09:47:06.471Z,27.91
2023-05-19T09:48:07.574Z,26.62
2023-05-19T09:49:06.506Z,29.63
2023-05-19T09:50:07.582Z,30.68
2023-05-19T09:51:07.619Z,29.22
2023-05-19T09:52:06.666Z,26.06
2023-05-19T09:53:07.678Z,27.74
2023-05-19T09:54:06.858Z,25.37
2023-05-19T09:55:06.758Z,27.76
2023-05-19T09:56:07.860Z,27.60
2023-05-19T09:57:08.768Z,28.09
2023-05-19T09:58:06.952Z,29.50
2023-05-19T09:59:06.949Z,28.25
2023-05-19T10:00:07.004Z,26.09
2023-05-19T10:01:07.973Z,27.18
2023-05-19T10:02:07.959Z,28.27
2023-05-19T10:03:08.022Z,28.23
2023-05-19T10:04:07.177Z,27.36
2023-05-19T10:05:07.097Z,25.51
2023-05-19T10:06:08.187Z,28.64
2023-05-19T10:07:08.175Z,27.09
2023-05-19T10:08:08.254Z,27.41
2023-05-19T10:09:07.177Z,26.96
2023-05-19T10:10:08.266Z,27.14
2023-05-19T10:11:07.231Z,26.68
2023-05-19T10:12:08.257Z,26.43
2023-05-19T10:13:08.411Z,25.28
2023-05-19T10:14:07.443Z,27.05
2023-05-19T10:15:08.339Z,27.81
2023-05-19T10:16:08.513Z,25.40
2023-05-19T10:17:07.483Z,25.71
2023-05-19T10:18:07.540Z,28.41
2023-05-19T10:19:07.480Z,27.27
2023-05-19T10:20:07.523Z,25.51
2023-05-19T10:21:08.703Z,26.23
2023-05-19T10:22:08.569Z,26.48
2023-05-19T10:23:07.520Z,28.20
2023-05-19T10:24:08.540Z,27.36
2023-05-19T10:25:08.816Z,25.61
2023-05-19T10:26:07.576Z,25.81
2023-05-19T10:27:08.624Z,27.51
2023-05-19T10:28:08.745Z,27.33
2023-05-19T10:29:08.649Z,29.58
2023-05-19T10:30:11.758Z,27.47
2023-05-19T10:31:07.718Z,27.60
2023-05-19T10:32:08.669Z,28.21
2023-05-19T10:33:08.665Z,27.82
2023-05-19T10:34:07.651Z,28.21
2023-05-19T10:35:08.634Z,29.56
2023-05-19T10:36:07.902Z,29.41
2023-05-19T10:37:07.612Z,25.72
2023-05-19T10:38:08.641Z,28.04
2023-05-19T10:39:08.681Z,26.83
2023-05-19T10:40:08.585Z,30.10
2023-05-19T10:41:07.574Z,27.85
2023-05-19T10:42:07.664Z,28.38
2023-05-19T10:43:07.628Z,27.76
2023-05-19T10:44:08.561Z,25.56
2023-05-19T10:45:08.638Z,27.25
2023-05-19T10:46:07.532Z,25.81
2023-05-19T10:47:08.792Z,26.76
2023-05-19T10:48:08.609Z,25.00
2023-05-19T10:49:08.536Z,27.25
2023-05-19T10:50:08.659Z,26.82
2023-05-19T10:51:08.630Z,29.13
2023-05-19T10:52:07.535Z,28.77
2023-05-19T10:53:07.555Z,29.85
2023-05-19T10:54:07.517Z,27.64
2023-05-19T10:55:08.609Z,27.14
2023-05-19T10:56:07.679Z,28.27
2023-05-19T10:57:07.470Z,30.52
2023-05-19T10:58:07.649Z,30.23
2023-05-19T10:59:07.437Z,28.93
2023-05-19T11:00:07.455Z,27.96
2023-05-19T11:01:07.485Z,28.36
2023-05-19T11:02:07.506Z,30.62
2023-05-19T11:03:07.462Z,27.64
2023-05-19T11:04:08.469Z,27.99
2023-05-19T11:05:08.566Z,29.28
2023-05-19T11:06:08.498Z,30.29
2023-05-19T11:07:08.616Z,28.70
2023-05-19T11:08:08.688Z,27.93
2023-05-19T11:09:07.824Z,30.19
2023-05-19T11:10:08.727Z,27.56
2023-05-19T11:11:07.582Z,30.18
2023-05-19T11:12:07.614Z,26.64
2023-05-19T11:13:07.645Z,31.20
2023-05-19T11:14:08.683Z,31.00
2023-05-19T11:15:07.851Z,29.16
2023-05-19T11:16:07.820Z,30.38
2023-05-19T11:17:08.714Z,27.96
2023-05-19T11:18:08.863Z,29.14
2023-05-19T11:19:08.728Z,28.84
2023-05-19T11:20:07.748Z,27.61
2023-05-19T11:21:07.971Z,28.49
2023-05-19T11:22:08.779Z,28.82
2023-05-19T11:23:08.910Z,28.22
2023-05-19T11:24:07.879Z,26.59
2023-05-19T11:25:07.806Z,27.69
2023-05-19T11:26:08.884Z,28.52
2023-05-19T11:27:07.796Z,29.29
2023-05-19T11:28:07.800Z,28.20
2023-05-19T11:29:08.811Z,30.40
2023-05-19T11:30:08.838Z,28.40
2023-05-19T11:31:07.818Z,28.30
2023-05-19T11:32:08.965Z,30.08
2023-05-19T11:33:08.854Z,28.94
2023-05-19T11:34:08.805Z,28.13
2023-05-19T11:35:07.828Z,26.23
2023-05-19T11:36:07.863Z,29.16
2023-05-19T11:37:08.066Z,28.20
2023-05-19T11:38:07.915Z,30.93
2023-05-19T11:39:07.789Z,27.59
2023-05-19T11:40:08.792Z,28.99
2023-05-19T11:41:08.994Z,27.28
2023-05-19T11:42:07.976Z,30.66
2023-05-19T11:43:07.800Z,29.06
2023-05-19T11:44:08.813Z,27.87
2023-05-19T11:45:08.805Z,28.24
2023-05-19T11:46:08.868Z,27.44
2023-05-19T11:47:07.818Z,29.47
2023-05-19T11:48:07.927Z,29.61
2023-05-19T11:49:08.002Z,30.12
2023-05-19T11:50:07.936Z,31.19
2023-05-19T11:51:07.890Z,28.98
2023-05-19T11:52:07.997Z,30.12
2023-05-19T11:53:08.800Z,27.58
2023-05-19T11:54:08.942Z,27.24
2023-05-19T11:55:08.868Z,29.49
2023-05-19T11:56:07.811Z,30.51
2023-05-19T11:57:08.841Z,28.91
2023-05-19T11:58:07.866Z,29.75
2023-05-19T11:59:07.797Z,31.66
2023-05-19T12:00:08.885Z,29.41
2023-05-19T12:01:07.802Z,29.33
2023-05-19T12:02:08.931Z,28.63
2023-05-19T12:03:09.263Z,31.13
2023-05-19T12:04:07.875Z,30.48
2023-05-19T12:05:08.900Z,29.22
2023-05-19T12:06:08.023Z,30.78
2023-05-19T12:07:08.799Z,31.19
2023-05-19T12:08:09.011Z,31.05
2023-05-19T12:09:07.836Z,32.48
2023-05-19T12:10:08.802Z,28.99
2023-05-19T12:11:08.109Z,31.52
2023-05-19T12:12:07.964Z,30.14
2023-05-19T12:13:07.804Z,32.12
2023-05-19T12:14:08.838Z,30.66
2023-05-19T12:15:07.876Z,33.41
2023-05-19T12:16:09.100Z,29.15
2023-05-19T12:17:08.777Z,32.26
2023-05-19T12:18:08.012Z,31.80
2023-05-19T12:19:08.827Z,32.40
2023-05-19T12:20:07.831Z,31.14
2023-05-19T12:21:08.961Z,32.04
2023-05-19T12:22:08.944Z,32.27
2023-05-19T12:23:07.961Z,32.16
2023-05-19T12:24:07.969Z,35.61
2023-05-19T12:25:07.912Z,33.29
2023-05-19T12:26:08.047Z,32.10
2023-05-19T12:27:08.847Z,31.94
2023-05-19T12:28:08.815Z,32.10
2023-05-19T12:29:07.834Z,32.08
2023-05-19T12:30:07.894Z,32.58
2023-05-19T12:31:09.150Z,32.36
2023-05-19T12:32:07.917Z,30.90
2023-05-19T12:33:07.843Z,34.18
2023-05-19T12:34:08.783Z,33.29
2023-05-19T12:35:07.794Z,31.84
2023-05-19T12:36:08.812Z,31.40
2023-05-19T12:37:07.808Z,32.33
2023-05-19T12:38:07.945Z,33.21
2023-05-19T12:39:07.810Z,34.66
2023-05-19T12:40:08.867Z,34.82
2023-05-19T12:41:07.976Z,33.88
2023-05-19T12:42:09.056Z,31.88
2023-05-19T12:43:08.920Z,33.76
2023-05-19T12:44:08.932Z,33.34
2023-05-19T12:45:08.946Z,33.32
2023-05-19T12:46:07.882Z,36.23
2023-05-19T12:47:07.915Z,34.01
2023-05-19T12:48:07.812Z,34.26
2023-05-19T12:49:08.962Z,33.91
2023-05-19T12:50:09.077Z,35.26
2023-05-19T12:51:08.109Z,35.64
2023-05-19T12:52:12.760Z,36.81
2023-05-19T12:53:07.933Z,36.95